createdAt,value
2022-10-23T00:01:46.756Z,13.76
2022-10-23T00:04:19.052Z,13.77
2022-10-23T00:06:48.655Z,13.74
2022-10-23T00:09:20.622Z,13.70
2022-10-23T00:11:50.789Z,13.67
2022-10-23T00:14:23.826Z,13.63
2022-10-23T00:16:52.369Z,13.61
2022-10-23T00:19:20.798Z,13.59
2022-10-23T00:21:49.173Z,13.56
2022-10-23T00:24:17.516Z,13.58
2022-10-23T00:26:45.741Z,13.53
2022-10-23T00:29:14.178Z,13.52
2022-10-23T00:31:43.767Z,13.51
2022-10-23T00:34:12.050Z,13.48
2022-10-23T00:36:41.087Z,13.45
2022-10-23T00:39:09.807Z,13.38
2022-10-23T00:41:38.141Z,13.39
2022-10-23T00:44:11.049Z,13.38
2022-10-23T00:46:40.849Z,13.37
2022-10-23T00:51:46.210Z,13.34
2022-10-23T00:54:25.654Z,13.33
2022-10-23T00:56:58.046Z,13.30
2022-10-23T00:59:26.734Z,13.27
2022-10-23T01:01:55.657Z,13.26
2022-10-23T01:04:26.671Z,13.22
2022-10-23T01:07:05.061Z,13.24
2022-10-23T01:09:39.753Z,13.21
2022-10-23T01:12:17.594Z,13.19
2022-10-23T01:15:01.594Z,13.17
2022-10-23T01:17:40.858Z,13.12
2022-10-23T01:20:33.991Z,13.09
2022-10-23T01:23:49.092Z,13.00
2022-10-23T01:26:32.300Z,12.90
2022-10-23T01:29:06.486Z,12.87
2022-10-23T01:31:39.457Z,12.83
2022-10-23T01:34:13.708Z,12.88
2022-10-23T01:36:48.948Z,12.83
2022-10-23T01:39:23.460Z,12.81
2022-10-23T01:41:56.150Z,12.79
2022-10-23T01:44:37.619Z,12.70
2022-10-23T01:47:08.715Z,12.66
2022-10-23T01:49:51.994Z,12.66
2022-10-23T01:52:22.253Z,12.66
2022-10-23T01:54:54.700Z,12.67
2022-10-23T01:57:24.903Z,12.63
2022-10-23T02:00:00.858Z,12.60
2022-10-23T02:02:31.714Z,12.61
2022-10-23T02:05:05.042Z,12.55
2022-10-23T02:07:33.620Z,12.53
2022-10-23T02:10:02.201Z,12.52
2022-10-23T02:12:41.210Z,12.57
2022-10-23T02:15:15.293Z,12.60
2022-10-23T02:17:52.661Z,12.60
2022-10-23T02:20:25.805Z,12.65
2022-10-23T02:23:05.924Z,12.71
2022-10-23T02:25:40.789Z,12.68
2022-10-23T02:28:16.247Z,12.68
2022-10-23T02:30:51.295Z,12.65
2022-10-23T02:33:20.476Z,12.67
2022-10-23T02:35:49.957Z,12.62
2022-10-23T02:38:36.556Z,12.60
2022-10-23T02:41:30.261Z,12.57
2022-10-23T02:44:21.792Z,12.56
2022-10-23T02:47:03.585Z,12.54
2022-10-23T02:49:40.182Z,12.51
2022-10-23T02:52:19.399Z,12.46
2022-10-23T02:55:06.696Z,12.44
2022-10-23T02:57:54.435Z,12.42
2022-10-23T03:00:24.359Z,12.42
2022-10-23T03:02:59.732Z,12.43
2022-10-23T03:05:34.873Z,12.41
2022-10-23T03:08:05.575Z,12.41
2022-10-23T03:10:33.836Z,12.38
2022-10-23T03:13:02.222Z,12.37
2022-10-23T03:15:35.793Z,12.33
2022-10-23T03:18:05.708Z,12.34
2022-10-23T03:20:35.169Z,12.28
2022-10-23T03:23:03.614Z,12.20
2022-10-23T03:25:31.835Z,12.10
2022-10-23T03:28:01.058Z,12.09
2022-10-23T03:30:29.356Z,12.07
2022-10-23T03:32:57.582Z,12.06
2022-10-23T03:35:27.375Z,12.06
2022-10-23T03:37:55.739Z,12.07
2022-10-23T03:40:25.830Z,12.06
2022-10-23T03:42:54.042Z,12.06
2022-10-23T03:45:22.356Z,12.05
2022-10-23T03:47:51.843Z,12.02
2022-10-23T03:50:21.159Z,12.02
2022-10-23T03:52:51.133Z,12.04
2022-10-23T03:55:19.448Z,11.97
2022-10-23T03:57:47.687Z,11.96
2022-10-23T04:00:16.803Z,11.94
2022-10-23T04:02:45.688Z,11.89
2022-10-23T04:05:14.570Z,11.84
2022-10-23T04:07:53.229Z,11.81
2022-10-23T04:10:21.704Z,11.72
2022-10-23T04:12:49.940Z,11.67
2022-10-23T04:15:18.600Z,11.58
2022-10-23T04:17:48.083Z,11.56
2022-10-23T04:20:16.586Z,11.56
2022-10-23T04:22:45.187Z,11.59
2022-10-23T04:25:16.515Z,11.52
2022-10-23T04:27:45.166Z,11.52
2022-10-23T04:30:14.512Z,11.51
2022-10-23T04:32:44.805Z,11.54
2022-10-23T04:35:13.044Z,11.57
2022-10-23T04:37:41.566Z,11.54
2022-10-23T04:40:11.309Z,11.54
2022-10-23T04:42:41.444Z,11.54
2022-10-23T04:45:11.204Z,11.52
2022-10-23T04:47:42.024Z,11.54
2022-10-23T04:50:10.702Z,11.55
2022-10-23T04:52:59.007Z,11.52
2022-10-23T04:55:51.098Z,11.51
2022-10-23T04:58:29.948Z,11.54
2022-10-23T05:00:59.686Z,11.53
2022-10-23T05:03:28.504Z,11.52
2022-10-23T05:05:57.857Z,11.60
2022-10-23T05:08:45.615Z,11.61
2022-10-23T05:11:52.122Z,11.60
2022-10-23T05:14:22.951Z,11.58
2022-10-23T05:16:56.856Z,11.59
2022-10-23T05:19:34.676Z,11.57
2022-10-23T05:22:03.751Z,11.62
2022-10-23T05:24:50.449Z,11.58
2022-10-23T05:27:21.999Z,11.55
2022-10-23T05:29:53.327Z,11.57
2022-10-23T05:32:27.269Z,11.58
2022-10-23T05:34:56.454Z,11.60
2022-10-23T05:37:28.609Z,11.62
2022-10-23T05:40:09.295Z,11.64
2022-10-23T05:42:41.526Z,11.67
2022-10-23T05:45:13.373Z,11.67
2022-10-23T05:48:10.711Z,11.68
2022-10-23T05:51:05.580Z,11.69
2022-10-23T05:53:57.574Z,11.68
2022-10-23T05:56:41.670Z,11.67
2022-10-23T05:59:22.139Z,11.67
2022-10-23T06:02:18.079Z,11.66
2022-10-23T06:04:54.713Z,11.65
2022-10-23T06:07:25.874Z,11.62
2022-10-23T06:09:55.600Z,11.60
2022-10-23T06:12:24.274Z,11.60
2022-10-23T06:14:54.368Z,11.60
2022-10-23T06:17:30.368Z,11.57
2022-10-23T06:20:02.421Z,11.60
2022-10-23T06:22:35.252Z,11.60
2022-10-23T06:25:17.665Z,11.61
2022-10-23T06:27:46.400Z,11.59
2022-10-23T06:30:15.178Z,11.57
2022-10-23T06:32:45.498Z,11.58
2022-10-23T06:35:14.387Z,11.57
2022-10-23T06:37:42.890Z,11.60
2022-10-23T06:40:19.048Z,11.58
2022-10-23T06:42:59.741Z,11.55
2022-10-23T06:45:38.716Z,11.53
2022-10-23T06:48:17.627Z,11.57
2022-10-23T06:51:08.303Z,11.54
2022-10-23T06:53:45.207Z,11.54
2022-10-23T06:56:39.653Z,11.54
2022-10-23T06:59:09.871Z,11.55
2022-10-23T07:01:39.616Z,11.57
2022-10-23T07:04:10.330Z,11.56
2022-10-23T07:06:39.016Z,11.57
2022-10-23T07:09:08.411Z,11.59
2022-10-23T07:11:54.964Z,11.59
2022-10-23T07:14:32.161Z,11.61
2022-10-23T07:17:03.439Z,11.63
2022-10-23T07:19:33.026Z,11.61
2022-10-23T07:22:14.921Z,11.65
2022-10-23T07:24:56.381Z,11.65
2022-10-23T07:27:29.300Z,11.63
2022-10-23T07:30:00.354Z,11.63
2022-10-23T07:32:32.690Z,11.65
2022-10-23T07:35:21.064Z,11.67
2022-10-23T07:38:06.016Z,11.68
2022-10-23T07:40:38.503Z,11.71
2022-10-23T07:43:09.317Z,11.78
2022-10-23T07:45:37.950Z,11.82
2022-10-23T07:48:16.112Z,11.88
2022-10-23T07:51:03.528Z,11.95
2022-10-23T07:53:32.805Z,11.98
2022-10-23T07:56:15.800Z,12.06
2022-10-23T07:59:02.873Z,12.13
2022-10-23T08:01:34.397Z,12.18
2022-10-23T08:04:03.008Z,12.19
2022-10-23T08:06:35.293Z,12.23
2022-10-23T08:09:06.518Z,12.29
2022-10-23T08:11:37.753Z,12.34
2022-10-23T08:14:09.316Z,12.40
2022-10-23T08:16:40.267Z,12.48
2022-10-23T08:19:17.875Z,12.54
2022-10-23T08:21:49.352Z,12.57
2022-10-23T08:24:17.939Z,12.63
2022-10-23T08:26:50.921Z,12.77
2022-10-23T08:29:22.784Z,12.84
2022-10-23T08:31:55.891Z,12.88
2022-10-23T08:34:32.742Z,12.97
2022-10-23T08:37:16.596Z,13.14
2022-10-23T08:39:52.649Z,13.18
2022-10-23T08:42:57.907Z,13.26
2022-10-23T08:45:33.938Z,13.32
2022-10-23T08:48:19.015Z,13.48
2022-10-23T08:51:23.349Z,13.55
2022-10-23T08:53:59.299Z,13.63
2022-10-23T08:56:32.723Z,13.68
2022-10-23T08:59:07.964Z,13.73
2022-10-23T09:01:42.699Z,13.77
2022-10-23T09:04:13.266Z,13.81
2022-10-23T09:06:53.066Z,13.91
2022-10-23T09:10:05.109Z,13.97
2022-10-23T09:12:33.732Z,14.00
2022-10-23T09:15:29.411Z,14.07
2022-10-23T09:18:01.771Z,14.14
2022-10-23T09:20:35.192Z,14.25
2022-10-23T09:23:09.270Z,14.35
2022-10-23T09:25:42.001Z,14.52
2022-10-23T09:28:21.031Z,14.64
2022-10-23T09:30:50.089Z,14.69
2022-10-23T09:33:22.192Z,14.75
2022-10-23T09:35:57.758Z,14.82
2022-10-23T09:38:32.650Z,14.91
2022-10-23T09:41:08.288Z,15.12
2022-10-23T09:43:36.602Z,15.16
2022-10-23T09:46:09.647Z,15.23
2022-10-23T09:48:42.104Z,15.32
2022-10-23T09:51:20.111Z,15.35
2022-10-23T09:53:52.776Z,15.35
2022-10-23T09:56:32.122Z,15.43
2022-10-23T09:59:02.855Z,15.54
2022-10-23T10:01:36.064Z,15.60
2022-10-23T10:04:39.572Z,15.68
2022-10-23T10:07:20.947Z,15.78
2022-10-23T10:09:49.496Z,15.85
2022-10-23T10:12:43.884Z,15.94
2022-10-23T10:15:21.660Z,15.99
2022-10-23T10:18:01.972Z,16.07
2022-10-23T10:20:52.358Z,16.16
2022-10-23T10:23:32.322Z,16.18
2022-10-23T10:26:13.054Z,16.19
2022-10-23T10:29:08.701Z,16.20
2022-10-23T10:31:58.883Z,16.26
2022-10-23T10:34:38.758Z,16.33
2022-10-23T10:37:25.090Z,16.38
2022-10-23T10:40:05.186Z,16.41
2022-10-23T10:43:02.199Z,16.57
2022-10-23T10:45:37.249Z,16.72
2022-10-23T10:48:24.899Z,16.83
2022-10-23T10:51:27.086Z,16.92
2022-10-23T10:54:21.366Z,16.94
2022-10-23T10:56:50.312Z,16.97
2022-10-23T10:59:24.863Z,17.00
2022-10-23T11:02:03.796Z,17.01
2022-10-23T11:04:39.584Z,17.09
2022-10-23T11:07:20.287Z,17.21
2022-10-23T11:09:50.331Z,17.24
2022-10-23T11:12:26.223Z,17.26
2022-10-23T11:14:54.809Z,17.27
2022-10-23T11:17:29.828Z,17.26
2022-10-23T11:20:05.005Z,17.28
2022-10-23T11:22:38.303Z,17.25
2022-10-23T11:25:41.518Z,17.29
2022-10-23T11:28:27.660Z,17.32
2022-10-23T11:31:11.858Z,17.38
2022-10-23T11:34:37.469Z,17.39
2022-10-23T11:37:09.106Z,17.40
2022-10-23T11:39:40.393Z,17.39
2022-10-23T11:42:31.907Z,17.41
2022-10-23T11:45:00.294Z,17.44
2022-10-23T11:47:38.881Z,17.43
2022-10-23T11:50:29.437Z,17.42
2022-10-23T11:53:14.783Z,17.43
2022-10-23T11:56:04.997Z,17.47
2022-10-23T11:58:45.798Z,17.51
2022-10-23T12:01:33.612Z,17.53
2022-10-23T12:04:05.288Z,17.64
2022-10-23T12:06:42.485Z,17.71
2022-10-23T12:09:28.077Z,17.80
2022-10-23T12:12:16.454Z,17.87
2022-10-23T12:14:46.974Z,17.90
2022-10-23T12:17:36.853Z,17.94
2022-10-23T12:20:32.019Z,18.00
2022-10-23T12:23:30.369Z,18.11
2022-10-23T12:26:22.423Z,18.12
2022-10-23T12:29:00.650Z,18.21
2022-10-23T12:31:45.531Z,18.23
2022-10-23T12:34:31.000Z,18.34
2022-10-23T12:37:16.033Z,18.36
2022-10-23T12:39:53.258Z,18.42
2022-10-23T12:42:26.458Z,18.50
2022-10-23T12:45:03.899Z,18.61
2022-10-23T12:47:32.543Z,18.74
2022-10-23T12:50:00.932Z,18.81
2022-10-23T12:52:29.201Z,18.89
2022-10-23T12:54:59.380Z,19.01
2022-10-23T12:57:30.267Z,19.20
2022-10-23T13:00:04.469Z,19.35
2022-10-23T13:02:34.179Z,19.58
2022-10-23T13:05:09.506Z,19.83
2022-10-23T13:07:44.877Z,20.10
2022-10-23T13:10:19.303Z,20.36
2022-10-23T13:13:05.772Z,20.53
2022-10-23T13:15:43.000Z,20.69
2022-10-23T13:18:14.258Z,20.72
2022-10-23T13:20:56.410Z,20.82
2022-10-23T13:23:31.498Z,20.98
2022-10-23T13:26:03.694Z,21.10
2022-10-23T13:28:42.184Z,21.22
2022-10-23T13:31:29.390Z,21.39
2022-10-23T13:34:23.469Z,21.48
2022-10-23T13:37:01.972Z,21.45
2022-10-23T13:39:33.382Z,21.42
2022-10-23T13:42:14.486Z,21.41
2022-10-23T13:44:43.452Z,21.40
2022-10-23T13:47:14.497Z,21.36
2022-10-23T13:49:42.882Z,21.31
2022-10-23T13:52:14.903Z,21.18
2022-10-23T13:54:43.456Z,21.10
2022-10-23T13:57:16.617Z,21.05
2022-10-23T13:59:45.022Z,20.99
2022-10-23T14:02:22.102Z,20.93
2022-10-23T14:04:51.662Z,20.86
2022-10-23T14:07:20.108Z,20.77
2022-10-23T14:09:50.522Z,20.70
2022-10-23T14:12:20.464Z,20.63
2022-10-23T14:14:52.656Z,20.55
2022-10-23T14:17:21.878Z,20.48
2022-10-23T14:19:51.061Z,20.42
2022-10-23T14:22:19.317Z,20.38
2022-10-23T14:24:47.778Z,20.34
2022-10-23T14:27:16.030Z,20.30
2022-10-23T14:29:45.655Z,20.25
2022-10-23T14:32:14.125Z,20.21
2022-10-23T14:34:45.824Z,20.18
2022-10-23T14:37:14.222Z,20.15
2022-10-23T14:39:46.214Z,20.11
2022-10-23T14:42:17.460Z,20.06
2022-10-23T14:44:49.284Z,20.04
2022-10-23T14:47:19.200Z,20.01
2022-10-23T14:49:52.652Z,20.00
2022-10-23T14:52:21.219Z,19.99
2022-10-23T14:54:49.685Z,19.98
2022-10-23T14:57:20.885Z,19.93
2022-10-23T14:59:51.288Z,19.91
2022-10-23T15:02:19.601Z,19.87
2022-10-23T15:04:48.063Z,19.86
2022-10-23T15:07:16.432Z,19.83
2022-10-23T15:09:44.861Z,19.84
2022-10-23T15:12:13.202Z,19.84
2022-10-23T15:14:41.480Z,19.83
2022-10-23T15:17:15.411Z,19.81
2022-10-23T15:19:44.316Z,19.79
2022-10-23T15:22:12.579Z,19.77
2022-10-23T15:24:40.923Z,19.76
2022-10-23T15:29:42.981Z,19.81
2022-10-23T15:32:13.470Z,19.84
2022-10-23T15:34:42.871Z,19.83
2022-10-23T15:37:11.789Z,19.83
2022-10-23T15:39:40.253Z,19.83
2022-10-23T15:42:08.554Z,19.83
2022-10-23T15:44:36.948Z,19.85
2022-10-23T15:47:05.328Z,19.86
2022-10-23T15:49:35.058Z,19.84
2022-10-23T15:52:04.217Z,19.87
2022-10-23T15:54:33.187Z,19.83
2022-10-23T15:57:02.608Z,19.81
2022-10-23T15:59:32.853Z,19.81
2022-10-23T16:02:01.395Z,19.75
2022-10-23T16:04:30.003Z,19.66
2022-10-23T16:06:59.645Z,19.63
2022-10-23T16:09:27.918Z,19.62
2022-10-23T16:11:56.194Z,19.60
2022-10-23T16:14:24.418Z,19.59
2022-10-23T16:16:52.650Z,19.56
2022-10-23T16:19:21.087Z,19.63
2022-10-23T16:21:49.450Z,19.53
2022-10-23T16:24:19.165Z,19.51
2022-10-23T16:26:52.913Z,19.56
2022-10-23T16:29:21.933Z,19.50
2022-10-23T16:31:50.325Z,19.47
2022-10-23T16:34:18.757Z,19.42
2022-10-23T16:36:47.575Z,19.41
2022-10-23T16:39:22.952Z,19.40
2022-10-23T16:42:09.994Z,19.35
2022-10-23T16:44:56.981Z,19.29
2022-10-23T16:47:25.391Z,19.24
2022-10-23T16:49:53.945Z,19.21
2022-10-23T16:52:22.328Z,19.20
2022-10-23T16:54:52.026Z,19.19
2022-10-23T16:57:20.511Z,19.15
2022-10-23T16:59:49.028Z,19.15
2022-10-23T17:02:17.472Z,19.16
2022-10-23T17:04:46.160Z,19.17
2022-10-23T17:07:14.567Z,19.11
2022-10-23T17:09:46.517Z,19.14
2022-10-23T17:12:17.313Z,19.19
2022-10-23T17:14:45.593Z,19.14
2022-10-23T17:17:13.986Z,19.14
2022-10-23T17:19:46.497Z,19.08
2022-10-23T17:22:15.788Z,19.01
2022-10-23T17:24:47.527Z,19.01
2022-10-23T17:27:20.102Z,18.97
2022-10-23T17:29:48.585Z,18.89
2022-10-23T17:32:17.020Z,18.91
2022-10-23T17:34:46.484Z,18.93
2022-10-23T17:37:14.867Z,18.93
2022-10-23T17:39:43.261Z,18.96
2022-10-23T17:42:11.591Z,18.88
2022-10-23T17:44:41.311Z,18.82
2022-10-23T17:47:09.656Z,18.78
2022-10-23T17:49:39.545Z,18.84
2022-10-23T17:52:12.263Z,18.76
2022-10-23T17:54:40.768Z,18.80
2022-10-23T17:57:09.308Z,18.74
2022-10-23T17:59:39.064Z,18.71
2022-10-23T18:02:08.865Z,18.72
2022-10-23T18:04:37.304Z,18.70
2022-10-23T18:07:05.624Z,18.68
2022-10-23T18:09:34.003Z,18.68
2022-10-23T18:12:02.300Z,18.69
2022-10-23T18:14:34.317Z,18.68
2022-10-23T18:17:05.117Z,18.69
2022-10-23T18:19:34.914Z,18.73
2022-10-23T18:22:03.217Z,18.75
2022-10-23T18:24:32.130Z,18.74
2022-10-23T18:27:00.557Z,18.84
2022-10-23T18:29:28.807Z,18.87
2022-10-23T18:31:57.246Z,18.81
2022-10-23T18:34:26.559Z,18.75
2022-10-23T18:36:56.839Z,18.70
2022-10-23T18:39:26.398Z,18.65
2022-10-23T18:41:57.594Z,18.57
2022-10-23T18:44:28.947Z,18.56
2022-10-23T18:46:58.813Z,18.52
2022-10-23T18:49:27.817Z,18.51
2022-10-23T18:51:58.277Z,18.51
2022-10-23T18:54:26.573Z,18.52
2022-10-23T18:56:55.084Z,18.50
2022-10-23T18:59:23.517Z,18.50
2022-10-23T19:01:52.077Z,18.49
2022-10-23T19:04:20.827Z,18.48
2022-10-23T19:06:51.029Z,18.48
2022-10-23T19:09:21.190Z,18.45
2022-10-23T19:11:49.577Z,18.44
2022-10-23T19:14:17.998Z,18.42
2022-10-23T19:16:57.517Z,18.41
2022-10-23T19:19:31.084Z,18.39
2022-10-23T19:22:00.514Z,18.38
2022-10-23T19:24:37.166Z,18.37
2022-10-23T19:27:05.914Z,18.34
2022-10-23T19:29:34.896Z,18.37
2022-10-23T19:32:03.294Z,18.37
2022-10-23T19:34:31.569Z,18.37
2022-10-23T19:36:59.949Z,18.37
2022-10-23T19:39:29.738Z,18.32
2022-10-23T19:41:58.508Z,18.31
2022-10-23T19:44:27.295Z,18.27
2022-10-23T19:46:55.793Z,18.26
2022-10-23T19:49:24.285Z,18.27
2022-10-23T19:51:52.777Z,18.23
2022-10-23T19:54:22.721Z,18.20
2022-10-23T19:56:52.348Z,18.21
2022-10-23T19:59:20.775Z,18.19
2022-10-23T20:01:49.526Z,18.17
2022-10-23T20:04:19.535Z,18.15
2022-10-23T20:06:48.373Z,18.13
2022-10-23T20:09:17.111Z,18.13
2022-10-23T20:11:45.659Z,18.10
2022-10-23T20:14:15.823Z,18.11
2022-10-23T20:16:46.957Z,18.10
2022-10-23T20:21:51.349Z,18.11
2022-10-23T20:24:21.910Z,18.11
2022-10-23T20:26:53.812Z,18.17
2022-10-23T20:29:24.822Z,18.15
2022-10-23T20:31:53.780Z,18.15
2022-10-23T20:34:22.240Z,18.24
2022-10-23T20:36:50.935Z,18.23
2022-10-23T20:39:24.560Z,18.32
2022-10-23T20:41:55.188Z,18.34
2022-10-23T20:44:25.626Z,18.42
2022-10-23T20:46:54.331Z,18.38
2022-10-23T20:49:23.869Z,18.40
2022-10-23T20:51:55.199Z,18.51
2022-10-23T20:54:25.303Z,18.51
2022-10-23T20:56:53.851Z,18.58
2022-10-23T20:59:22.104Z,18.58
2022-10-23T21:01:55.190Z,18.68
2022-10-23T21:04:27.461Z,18.70
2022-10-23T21:07:09.939Z,18.70
2022-10-23T21:09:39.548Z,18.75
2022-10-23T21:12:08.593Z,18.83
2022-10-23T21:14:37.633Z,18.90
2022-10-23T21:17:08.601Z,18.92
2022-10-23T21:19:36.830Z,18.93
2022-10-23T21:22:05.249Z,19.01
2022-10-23T21:24:33.523Z,18.95
2022-10-23T21:27:01.751Z,19.01
2022-10-23T21:29:30.083Z,19.08
2022-10-23T21:32:01.560Z,19.02
2022-10-23T21:34:31.749Z,19.06
2022-10-23T21:37:15.550Z,19.13
2022-10-23T21:39:44.879Z,19.13
2022-10-23T21:42:14.633Z,19.20
2022-10-23T21:44:44.025Z,19.18
2022-10-23T21:47:12.382Z,19.21
2022-10-23T21:49:42.131Z,19.23
2022-10-23T21:52:10.410Z,19.27
2022-10-23T21:54:38.733Z,19.25
2022-10-23T21:57:14.495Z,19.27
2022-10-23T21:59:42.912Z,19.27
2022-10-23T22:02:11.480Z,19.27
2022-10-23T22:04:41.823Z,19.26
2022-10-23T22:07:14.752Z,19.28
2022-10-23T22:09:43.761Z,19.26
2022-10-23T22:12:13.017Z,19.27
2022-10-23T22:14:41.364Z,19.26
2022-10-23T22:17:09.774Z,19.27
2022-10-23T22:19:38.303Z,19.30
2022-10-23T22:22:08.344Z,19.23
2022-10-23T22:24:37.803Z,19.25
2022-10-23T22:27:06.324Z,19.19
2022-10-23T22:29:34.708Z,19.18
2022-10-23T22:32:03.071Z,19.17
2022-10-23T22:34:51.865Z,19.19
2022-10-23T22:37:21.853Z,19.14
2022-10-23T22:39:52.856Z,19.15
2022-10-23T22:42:21.286Z,19.12
2022-10-23T22:44:49.646Z,19.14
2022-10-23T22:47:18.067Z,19.14
2022-10-23T22:49:46.306Z,19.14
2022-10-23T22:52:14.845Z,19.09
2022-10-23T22:54:44.449Z,19.06
2022-10-23T22:57:12.716Z,19.01
2022-10-23T22:59:41.275Z,19.05
2022-10-23T23:02:09.989Z,19.07
2022-10-23T23:04:39.255Z,19.04
2022-10-23T23:07:09.256Z,19.01
2022-10-23T23:09:40.209Z,19.00
2022-10-23T23:12:12.253Z,18.98
2022-10-23T23:14:41.748Z,18.94
2022-10-23T23:17:10.887Z,18.90
2022-10-23T23:19:40.262Z,18.85
2022-10-23T23:22:08.775Z,18.87
2022-10-23T23:24:37.160Z,18.76
2022-10-23T23:27:05.524Z,18.81
2022-10-23T23:29:35.207Z,18.75
2022-10-23T23:32:05.992Z,18.73
2022-10-23T23:34:34.367Z,18.76
2022-10-23T23:37:02.731Z,18.79
2022-10-23T23:39:30.921Z,18.74
2022-10-23T23:41:59.390Z,18.70
2022-10-23T23:44:28.151Z,18.71
2022-10-23T23:46:57.882Z,18.66
2022-10-23T23:49:26.469Z,18.70
2022-10-23T23:51:54.749Z,18.66
2022-10-23T23:54:23.111Z,18.66
2022-10-23T23:56:51.488Z,18.63
2022-10-23T23:59:19.819Z,18.60
